Time;durP1;ratioP1;P1;durP2;ratioP2;P2;SDS_P1;SDS_P2;PMS_P1;PMS_P2;Temp;Humidity;BMP_temperature;BMP_pressure;BME280_temperature;BME280_humidity;BME280_pressure;Samples;Min_cycle;Max_cycle;Signal;HPM_P1;HPM_P2
2023/01/22 00:01:26;;;;;;;15.70;5.40;;;;;;;0.10;99.97;101743.34;111087;1209;97709;-62
2023/01/22 00:03:53;;;;;;;15.30;6.10;;;;;;;0.10;99.99;101742.63;111001;1209;97329;-62
2023/01/22 00:06:19;;;;;;;10.60;5.80;;;;;;;0.09;99.94;101749.64;110976;1208;138210;-62
2023/01/22 00:08:46;;;;;;;11.70;5.90;;;;;;;0.09;100.00;101754.39;111070;1217;98128;-62
2023/01/22 00:11:13;;;;;;;11.50;5.60;;;;;;;0.11;99.97;101757.23;110940;1208;139239;-62
2023/01/22 00:13:39;;;;;;;17.20;7.20;;;;;;;0.11;99.98;101758.46;111110;1206;99211;-62
2023/01/22 00:16:05;;;;;;;11.40;6.70;;;;;;;0.10;99.97;101758.80;110883;1209;139216;-62
2023/01/22 00:18:30;;;;;;;13.40;6.70;;;;;;;0.08;99.95;101759.13;111098;1209;98043;-62
2023/01/22 00:20:56;;;;;;;14.00;6.20;;;;;;;0.08;100.00;101760.70;111055;1206;97852;-62
2023/01/22 00:23:23;;;;;;;13.80;6.40;;;;;;;0.10;99.99;101761.26;110919;1208;140445;-62
2023/01/22 00:25:48;;;;;;;14.40;6.70;;;;;;;0.10;99.98;101762.33;111148;1206;97694;-62
2023/01/22 00:28:15;;;;;;;13.50;6.80;;;;;;;0.11;99.98;101758.29;110940;1209;139716;-62
2023/01/22 00:30:41;;;;;;;13.70;6.50;;;;;;;0.12;100.00;101755.50;111042;1209;97830;-62
2023/01/22 00:33:06;;;;;;;14.60;6.20;;;;;;;0.11;99.92;101753.73;111004;1208;97696;-63
2023/01/22 00:35:33;;;;;;;20.20;6.80;;;;;;;0.11;99.84;101757.42;111058;1209;139131;-62
2023/01/22 00:37:59;;;;;;;12.70;6.60;;;;;;;0.11;99.90;101752.67;111162;1206;97643;-63
2023/01/22 00:40:24;;;;;;;17.10;7.00;;;;;;;0.12;99.91;101753.56;111005;1208;139735;-62
2023/01/22 00:42:49;;;;;;;15.60;6.40;;;;;;;0.12;99.88;101748.48;111162;1209;97773;-63
2023/01/22 00:45:15;;;;;;;15.20;7.30;;;;;;;0.13;100.00;101753.92;111103;1205;97697;-61
2023/01/22 00:47:40;;;;;;;13.60;7.20;;;;;;;0.13;99.93;101743.39;110970;1206;139123;-62
2023/01/22 00:50:07;;;;;;;18.80;7.20;;;;;;;0.14;100.00;101743.41;110991;1208;111553;-61
2023/01/22 00:52:32;;;;;;;17.50;7.50;;;;;;;0.14;99.99;101740.24;110974;1209;138943;-61
2023/01/22 00:54:57;;;;;;;20.70;7.60;;;;;;;0.14;99.84;101740.60;111164;1208;97606;-62
2023/01/22 00:57:23;;;;;;;17.40;7.60;;;;;;;0.15;99.96;101741.84;111068;1205;98137;-62
2023/01/22 00:59:49;;;;;;;10.40;5.70;;;;;;;0.15;99.97;101743.95;111022;1209;139983;-62
2023/01/22 01:02:15;;;;;;;14.20;6.70;;;;;;;0.14;99.87;101747.28;111109;1208;97636;-63
2023/01/22 01:04:40;;;;;;;13.90;6.70;;;;;;;0.14;99.96;101751.66;110999;1208;139619;-62
2023/01/22 01:07:06;;;;;;;10.90;6.10;;;;;;;0.14;99.94;101759.75;111057;1208;99656;-60
2023/01/22 01:09:31;;;;;;;12.40;6.00;;;;;;;0.14;99.92;101757.46;111153;1208;97603;-61
2023/01/22 01:11:57;;;;;;;13.30;5.90;;;;;;;0.16;99.99;101756.63;110808;1206;138483;-63
2023/01/22 01:14:23;;;;;;;12.10;5.70;;;;;;;0.18;99.98;101763.86;111109;1206;97692;-60
2023/01/22 01:16:50;;;;;;;14.70;6.80;;;;;;;0.18;99.94;101758.23;111060;1208;140308;-61
2023/01/22 01:19:16;;;;;;;15.60;5.80;;;;;;;0.19;99.99;101764.23;111193;1208;99998;-61
2023/01/22 01:21:42;;;;;;;10.90;5.30;;;;;;;0.20;100.00;101769.54;111086;1208;97603;-62
2023/01/22 01:24:09;;;;;;;13.70;6.20;;;;;;;0.20;100.00;101770.39;110948;1208;140305;-61
2023/01/22 01:26:35;;;;;;;13.70;5.60;;;;;;;0.20;100.00;101773.91;111137;1206;96501;-61
2023/01/22 01:29:03;;;;;;;13.40;5.40;;;;;;;0.20;99.95;101775.33;110878;1208;139249;-60
2023/01/22 01:31:28;;;;;;;15.20;6.30;;;;;;;0.19;99.97;101776.00;111087;1209;107228;-60
2023/01/22 01:33:53;;;;;;;8.50;5.00;;;;;;;0.19;100.00;101773.55;111112;1208;97654;-61
2023/01/22 01:36:22;;;;;;;12.20;5.70;;;;;;;0.21;99.96;101772.17;111081;1208;138525;-60
2023/01/22 01:38:48;;;;;;;14.10;6.30;;;;;;;0.20;99.99;101771.64;111034;1208;100198;-60
2023/01/22 01:41:18;;;;;;;16.60;7.00;;;;;;;0.20;99.95;101776.39;111000;1208;140328;-61
2023/01/22 01:43:43;;;;;;;12.60;6.00;;;;;;;0.21;99.99;101779.03;111213;1208;97896;-61
2023/01/22 01:46:23;;;;;;;14.40;6.00;;;;;;;0.22;99.95;101776.05;110901;1209;139152;-60
2023/01/22 01:48:51;;;;;;;14.50;6.70;;;;;;;0.21;99.99;101778.85;111114;1206;112840;-60
2023/01/22 01:51:35;;;;;;;11.90;6.20;;;;;;;0.21;100.00;101780.45;111185;1222;101131;-60
2023/01/22 01:54:03;;;;;;;18.10;7.10;;;;;;;0.23;99.97;101777.84;111018;1209;138897;-60
2023/01/22 01:56:34;;;;;;;13.80;7.90;;;;;;;0.24;100.00;101778.55;111232;1220;99247;-60
2023/01/22 01:59:04;;;;;;;19.90;7.30;;;;;;;0.26;100.00;101781.93;110965;1208;138709;-61
2023/01/22 02:01:31;;;;;;;14.40;6.00;;;;;;;0.26;100.00;101785.80;111082;1208;111480;-61
2023/01/22 02:03:58;;;;;;;18.20;8.10;;;;;;;0.25;99.98;101781.20;111023;1206;97751;-63
2023/01/22 02:06:23;;;;;;;16.50;7.50;;;;;;;0.24;99.91;101786.30;111147;1206;140467;-62
2023/01/22 02:08:50;;;;;;;17.20;7.20;;;;;;;0.23;99.86;101785.21;111126;1209;97716;-62
2023/01/22 02:11:17;;;;;;;12.30;6.90;;;;;;;0.22;99.96;101785.20;110887;1211;138789;-62
2023/01/22 02:13:51;;;;;;;15.40;7.00;;;;;;;0.23;100.00;101785.55;111123;1209;97613;-62
2023/01/22 02:16:17;;;;;;;17.30;8.10;;;;;;;0.24;100.00;101786.46;110949;1209;138952;-63
2023/01/22 02:18:42;;;;;;;15.60;8.00;;;;;;;0.23;99.99;101787.68;110997;1208;99077;-62
2023/01/22 02:21:39;;;;;;;18.70;8.10;;;;;;;0.25;99.98;101787.17;111102;1208;97581;-62
2023/01/22 02:24:15;;;;;;;20.70;7.30;;;;;;;0.25;100.00;101793.52;110890;1206;138893;-62
2023/01/22 02:26:43;;;;;;;19.60;7.40;;;;;;;0.24;99.99;101798.06;111197;1208;108423;-63
2023/01/22 02:29:12;;;;;;;17.60;7.80;;;;;;;0.23;99.97;101797.17;110898;1205;139261;-61
2023/01/22 02:31:40;;;;;;;23.90;7.50;;;;;;;0.24;99.96;101793.66;111313;1205;97435;-61
2023/01/22 02:34:06;;;;;;;19.00;7.60;;;;;;;0.23;99.93;101799.28;111025;1208;139177;-61
2023/01/22 02:36:34;;;;;;;23.50;8.60;;;;;;;0.23;100.00;101799.27;111030;1218;98969;-61
2023/01/22 02:39:00;;;;;;;22.10;8.40;;;;;;;0.23;99.99;101804.19;111033;1206;98107;-60
2023/01/22 02:41:26;;;;;;;20.60;9.10;;;;;;;0.23;99.93;101804.36;110958;1209;140592;-61
2023/01/22 02:43:52;;;;;;;17.40;8.10;;;;;;;0.23;100.00;101802.98;111121;1209;97716;-62
2023/01/22 02:46:18;;;;;;;15.50;7.40;;;;;;;0.23;99.99;101805.08;110923;1208;143865;-61
2023/01/22 02:48:43;;;;;;;18.70;7.70;;;;;;;0.24;99.98;101801.58;111050;1206;98375;-61
2023/01/22 02:51:08;;;;;;;19.30;7.70;;;;;;;0.24;100.00;101808.61;111037;1208;97638;-61
2023/01/22 02:53:34;;;;;;;15.70;7.20;;;;;;;0.23;100.00;101808.59;111034;1206;139827;-61
2023/01/22 02:55:59;;;;;;;19.00;7.40;;;;;;;0.23;100.00;101811.41;111031;1206;97866;-61
2023/01/22 02:58:25;;;;;;;23.10;9.10;;;;;;;0.24;100.00;101809.85;111007;1209;140357;-61
2023/01/22 03:00:50;;;;;;;21.00;8.10;;;;;;;0.25;99.96;101818.30;111132;1206;97648;-61
2023/01/22 03:03:16;;;;;;;19.70;9.00;;;;;;;0.24;100.00;101823.39;111160;1205;97657;-61
2023/01/22 03:05:49;;;;;;;15.80;7.20;;;;;;;0.24;100.00;101829.16;110964;1206;139794;-61
2023/01/22 03:08:15;;;;;;;19.30;8.90;;;;;;;0.21;99.91;101825.96;111151;1206;98042;-61
2023/01/22 03:10:41;;;;;;;16.40;7.40;;;;;;;0.23;100.00;101823.52;110855;1211;139560;-61
2023/01/22 03:21:19;;;;;;;23.40;9.00;;;;;;;0.22;100.00;101827.38;111089;1209;97987;-61
2023/01/22 03:23:50;;;;;;;23.40;8.90;;;;;;;0.22;100.00;101823.88;110995;1209;139689;-60
2023/01/22 03:26:16;;;;;;;19.10;9.10;;;;;;;0.23;100.00;101829.33;111030;1221;99315;-62
2023/01/22 03:28:41;;;;;;;17.90;7.90;;;;;;;0.21;100.00;101830.00;110945;1206;140454;-61
2023/01/22 03:31:07;;;;;;;22.70;9.00;;;;;;;0.21;100.00;101828.95;111263;1208;98955;-61
2023/01/22 03:33:33;;;;;;;17.70;7.60;;;;;;;0.21;100.00;101826.31;111180;1206;111546;-62
2023/01/22 03:36:03;;;;;;;20.50;8.90;;;;;;;0.21;100.00;101829.13;110811;1208;139585;-61
2023/01/22 03:38:28;;;;;;;19.00;8.90;;;;;;;0.22;99.95;101831.06;111082;1208;109953;-61
2023/01/22 03:41:07;;;;;;;21.30;8.90;;;;;;;0.21;100.00;101831.40;110809;1207;138636;-61
2023/01/22 03:43:33;;;;;;;19.10;8.80;;;;;;;0.19;100.00;101829.45;111001;1211;96857;-59
2023/01/22 03:46:09;;;;;;;26.50;10.30;;;;;;;0.19;99.95;101831.02;111040;1208;97797;-61
2023/01/22 03:48:35;;;;;;;20.70;8.60;;;;;;;0.18;99.99;101832.06;111032;1205;99972;-61
2023/01/22 03:51:10;;;;;;;21.20;8.50;;;;;;;0.17;99.98;101836.09;110969;1210;97597;-60
2023/01/22 03:53:35;;;;;;;22.60;9.70;;;;;;;0.18;100.00;101835.39;111104;1208;140811;-61
2023/01/22 03:56:04;;;;;;;18.20;8.60;;;;;;;0.19;100.00;101838.59;110981;1210;97831;-60
2023/01/22 03:58:29;;;;;;;24.00;10.00;;;;;;;0.18;100.00;101838.73;110968;1210;139819;-61
2023/01/22 04:00:58;;;;;;;19.30;8.80;;;;;;;0.19;100.00;101835.94;111080;1209;97763;-61
2023/01/22 04:03:25;;;;;;;23.10;8.60;;;;;;;0.21;100.00;101840.20;111030;1222;97578;-60
2023/01/22 04:05:51;;;;;;;26.00;10.60;;;;;;;0.20;100.00;101844.23;110944;1209;139416;-61
2023/01/22 04:08:16;;;;;;;25.20;10.60;;;;;;;0.20;100.00;101844.73;111099;1219;97614;-62
2023/01/22 04:10:42;;;;;;;27.00;9.40;;;;;;;0.19;100.00;101844.55;111115;1206;139476;-61
2023/01/22 04:13:08;;;;;;;16.30;8.00;;;;;;;0.17;100.00;101849.10;111093;1209;97664;-60
2023/01/22 04:15:33;;;;;;;23.20;9.50;;;;;;;0.16;100.00;101849.60;111172;1206;97703;-61
2023/01/22 04:17:58;;;;;;;21.60;8.90;;;;;;;0.16;100.00;101849.95;111098;1209;139758;-60
2023/01/22 04:20:24;;;;;;;23.00;9.10;;;;;;;0.16;99.96;101853.46;111064;1206;98126;-61
2023/01/22 04:22:50;;;;;;;19.70;9.00;;;;;;;0.17;100.00;101858.40;111051;1209;138814;-60
2023/01/22 04:25:15;;;;;;;18.90;9.00;;;;;;;0.19;100.00;101859.84;111239;1208;116997;-60
2023/01/22 04:27:43;;;;;;;20.50;9.80;;;;;;;0.20;99.98;101859.70;111087;1206;97921;-60
2023/01/22 04:30:09;;;;;;;24.60;9.10;;;;;;;0.19;100.00;101858.62;111240;1206;138706;-61
2023/01/22 04:32:34;;;;;;;22.50;8.40;;;;;;;0.18;100.00;101864.58;111187;1209;98225;-60
2023/01/22 04:34:59;;;;;;;21.80;9.70;;;;;;;0.18;100.00;101871.60;110953;1220;140475;-61
2023/01/22 04:37:25;;;;;;;23.50;9.90;;;;;;;0.20;100.00;101872.52;111123;1208;97694;-59
2023/01/22 04:39:50;;;;;;;21.40;9.10;;;;;;;0.22;100.00;101878.53;111120;1212;97587;-59
2023/01/22 04:42:15;;;;;;;19.00;8.30;;;;;;;0.23;100.00;101878.38;110927;1206;140487;-59
2023/01/22 04:44:40;;;;;;;21.90;9.50;;;;;;;0.24;100.00;101882.80;111140;1212;97675;-60
2023/01/22 04:47:06;;;;;;;17.90;7.80;;;;;;;0.26;100.00;101887.92;110901;1209;138786;-60
2023/01/22 04:49:31;;;;;;;17.50;8.70;;;;;;;0.26;100.00;101887.05;111126;1208;97604;-60
2023/01/22 04:51:57;;;;;;;22.20;9.20;;;;;;;0.26;100.00;101891.80;111094;1208;97722;-59
2023/01/22 04:54:22;;;;;;;18.60;8.50;;;;;;;0.26;99.99;101893.91;111038;1208;139015;-59
2023/01/22 04:56:47;;;;;;;21.10;8.80;;;;;;;0.27;99.97;101896.73;111168;1209;97690;-59
2023/01/22 04:59:12;;;;;;;17.20;8.30;;;;;;;0.26;100.00;101892.85;110961;1206;139592;-59
2023/01/22 05:01:38;;;;;;;22.00;9.70;;;;;;;0.25;100.00;101896.52;111188;1205;97777;-59
2023/01/22 05:04:03;;;;;;;22.50;8.90;;;;;;;0.26;100.00;101903.74;111056;1211;97600;-59
2023/01/22 05:06:29;;;;;;;18.60;9.20;;;;;;;0.24;100.00;101904.23;111074;1204;138443;-60
2023/01/22 05:08:55;;;;;;;16.80;9.20;;;;;;;0.25;100.00;101908.12;111227;1206;97764;-61
2023/01/22 05:11:20;;;;;;;20.30;8.80;;;;;;;0.25;100.00;101912.16;111026;1205;138720;-60
2023/01/22 05:13:46;;;;;;;23.60;10.10;;;;;;;0.24;100.00;101917.08;111201;1209;97683;-60
2023/01/22 05:16:11;;;;;;;21.00;9.10;;;;;;;0.25;99.98;101917.63;110914;1209;139904;-60
2023/01/22 05:18:37;;;;;;;22.30;8.90;;;;;;;0.25;100.00;101920.60;111145;1209;97617;-59
2023/01/22 05:21:02;;;;;;;24.00;9.90;;;;;;;0.26;100.00;101919.21;111122;1206;97597;-60
2023/01/22 05:23:27;;;;;;;29.30;9.90;;;;;;;0.28;100.00;101925.23;110884;1209;139202;-59
2023/01/22 05:25:53;;;;;;;25.60;11.70;;;;;;;0.26;100.00;101927.99;111131;1209;97923;-59
2023/01/22 05:28:18;;;;;;;30.80;11.00;;;;;;;0.25;100.00;101931.50;111056;1208;139665;-59
2023/01/22 05:30:43;;;;;;;24.10;10.50;;;;;;;0.24;100.00;101931.14;111040;1209;97654;-59
2023/01/22 05:33:08;;;;;;;28.90;10.50;;;;;;;0.26;100.00;101935.03;111210;1211;97614;-59
2023/01/22 05:35:34;;;;;;;28.30;11.30;;;;;;;0.27;100.00;101935.23;110975;1209;139358;-60
2023/01/22 05:37:59;;;;;;;22.90;11.50;;;;;;;0.27;100.00;101934.54;111193;1205;98128;-59
2023/01/22 05:40:24;;;;;;;32.50;13.00;;;;;;;0.28;100.00;101931.90;110918;1211;140117;-59
2023/01/22 05:42:49;;;;;;;30.10;12.30;;;;;;;0.28;100.00;101932.43;111187;1209;97706;-59
2023/01/22 05:45:15;;;;;;;27.10;11.90;;;;;;;0.26;100.00;101929.59;111117;1208;97694;-59
2023/01/22 05:47:40;;;;;;;27.70;12.20;;;;;;;0.25;100.00;101925.71;110980;1209;140930;-59
2023/01/22 05:50:06;;;;;;;29.70;11.40;;;;;;;0.24;100.00;101928.48;111146;1206;98221;-58
2023/01/22 05:52:31;;;;;;;28.60;10.80;;;;;;;0.22;100.00;101926.53;110930;1209;139262;-62
2023/01/22 05:54:58;;;;;;;22.70;10.80;;;;;;;0.22;100.00;101925.83;111179;1208;98458;-60
2023/01/22 05:57:24;;;;;;;24.70;10.90;;;;;;;0.23;100.00;101930.77;111051;1209;97543;-61
2023/01/22 05:59:49;;;;;;;31.80;12.70;;;;;;;0.24;100.00;101933.41;110974;1206;139420;-61
2023/01/22 06:02:14;;;;;;;29.40;13.70;;;;;;;0.25;100.00;101934.13;111073;1208;97606;-59
2023/01/22 06:04:39;;;;;;;27.20;12.00;;;;;;;0.23;100.00;101931.45;110983;1209;139039;-61
2023/01/22 06:07:05;;;;;;;31.90;13.30;;;;;;;0.21;100.00;101934.77;111125;1210;97682;-61
2023/01/22 06:09:30;;;;;;;34.20;13.90;;;;;;;0.21;100.00;101934.41;111113;1209;97597;-61
2023/01/22 06:11:55;;;;;;;30.90;13.20;;;;;;;0.21;100.00;101937.75;110910;1205;140686;-61
2023/01/22 06:14:21;;;;;;;30.30;13.50;;;;;;;0.20;100.00;101942.48;111124;1206;97587;-59
2023/01/22 06:16:46;;;;;;;37.10;14.60;;;;;;;0.20;100.00;101944.95;110993;1206;140361;-61
2023/01/22 06:19:11;;;;;;;38.40;14.50;;;;;;;0.20;100.00;101947.94;111182;1206;97652;-61
2023/01/22 06:21:37;;;;;;;28.70;12.90;;;;;;;0.21;100.00;101952.52;111112;1209;97748;-61
2023/01/22 06:24:02;;;;;;;32.80;13.40;;;;;;;0.21;100.00;101949.89;110909;1210;139904;-61
2023/01/22 06:26:27;;;;;;;34.10;13.80;;;;;;;0.20;100.00;101959.00;111122;1218;97680;-59
2023/01/22 06:28:54;;;;;;;36.10;15.40;;;;;;;0.22;100.00;101958.15;111005;1205;140499;-59
2023/01/22 06:31:19;;;;;;;34.80;15.40;;;;;;;0.22;100.00;101960.98;111119;1209;97584;-59
2023/01/22 06:33:45;;;;;;;34.80;15.40;;;;;;;0.22;100.00;101962.20;111114;1206;98831;-61
2023/01/22 06:36:10;;;;;;;38.50;15.00;;;;;;;0.22;100.00;101964.31;110981;1204;140566;-60
2023/01/22 06:38:36;;;;;;;30.00;13.00;;;;;;;0.23;100.00;101973.64;111186;1206;97644;-60
2023/01/22 06:41:01;;;;;;;32.50;13.20;;;;;;;0.23;100.00;101976.64;110984;1218;140144;-60
2023/01/22 06:43:27;;;;;;;30.30;12.90;;;;;;;0.22;100.00;101982.42;111200;1209;107825;-60
2023/01/22 06:45:53;;;;;;;33.50;13.60;;;;;;;0.23;100.00;101989.83;111083;1208;100236;-59
2023/01/22 06:48:19;;;;;;;32.30;12.30;;;;;;;0.25;100.00;101988.27;110956;1220;140144;-60
2023/01/22 06:50:44;;;;;;;27.70;12.70;;;;;;;0.24;100.00;101992.67;111178;1206;97620;-59
2023/01/22 06:53:09;;;;;;;30.30;12.30;;;;;;;0.25;100.00;101994.27;110917;1208;140504;-60
2023/01/22 06:55:36;;;;;;;27.00;12.00;;;;;;;0.25;100.00;101996.55;111090;1211;98939;-60
2023/01/22 06:58:02;;;;;;;29.10;12.40;;;;;;;0.25;99.98;101998.30;111185;1217;97126;-59
2023/01/22 07:00:27;;;;;;;29.80;12.90;;;;;;;0.25;100.00;102001.11;111137;1208;141042;-60
2023/01/22 07:02:53;;;;;;;28.60;12.20;;;;;;;0.26;100.00;102002.72;110990;1209;98625;-61
2023/01/22 07:05:19;;;;;;;31.80;12.40;;;;;;;0.27;100.00;102002.22;111054;1205;139567;-60
2023/01/22 07:07:46;;;;;;;25.50;11.40;;;;;;;0.27;100.00;102005.38;111194;1208;97599;-60
2023/01/22 07:10:12;;;;;;;27.00;11.10;;;;;;;0.26;100.00;102007.30;111038;1206;138868;-61
2023/01/22 07:12:38;;;;;;;29.10;11.60;;;;;;;0.27;100.00;102007.66;111350;1206;97661;-60
2023/01/22 07:15:05;;;;;;;32.20;12.20;;;;;;;0.29;100.00;102008.92;111125;1206;97728;-60
2023/01/22 07:17:31;;;;;;;28.40;11.50;;;;;;;0.31;100.00;102009.50;111087;1209;139244;-60
2023/01/22 07:19:56;;;;;;;32.80;13.70;;;;;;;0.32;100.00;102009.71;111115;1212;97675;-61
2023/01/22 07:22:21;;;;;;;40.40;14.80;;;;;;;0.35;100.00;102011.51;111102;1206;139711;-60
2023/01/22 07:24:47;;;;;;;29.60;13.90;;;;;;;0.36;100.00;102017.67;111116;1208;97615;-61
2023/01/22 07:27:12;;;;;;;39.60;15.50;;;;;;;0.35;100.00;102020.47;111138;1209;97694;-60
2023/01/22 07:29:37;;;;;;;40.10;14.60;;;;;;;0.36;100.00;102024.73;111069;1208;139774;-60
2023/01/22 07:32:02;;;;;;;30.90;14.00;;;;;;;0.37;100.00;102030.02;111025;1206;97578;-60
2023/01/22 07:34:28;;;;;;;33.40;13.30;;;;;;;0.37;100.00;102034.23;111129;1209;138944;-60
2023/01/22 07:36:53;;;;;;;32.80;13.30;;;;;;;0.38;100.00;102033.55;110960;1210;97115;-60
2023/01/22 07:39:18;;;;;;;30.80;14.00;;;;;;;0.38;100.00;102039.36;111147;1209;97866;-60
2023/01/22 07:41:44;;;;;;;42.20;15.70;;;;;;;0.40;100.00;102043.95;110992;1206;139953;-59
2023/01/22 07:44:10;;;;;;;33.80;14.00;;;;;;;0.40;100.00;102050.65;111173;1220;97609;-60
2023/01/22 07:46:37;;;;;;;43.90;15.80;;;;;;;0.41;100.00;102049.96;110997;1206;140373;-60
2023/01/22 07:49:04;;;;;;;38.70;15.10;;;;;;;0.41;100.00;102051.36;111048;1211;96443;-59
2023/01/22 07:51:29;;;;;;;38.00;14.00;;;;;;;0.43;100.00;102048.95;111366;1208;97583;-60
2023/01/22 07:53:54;;;;;;;38.60;15.70;;;;;;;0.41;100.00;102051.20;110928;1221;140395;-60
2023/01/22 07:56:20;;;;;;;38.60;14.90;;;;;;;0.41;100.00;102053.33;110982;1206;99668;-60
2023/01/22 07:58:46;;;;;;;37.70;14.50;;;;;;;0.43;100.00;102047.02;110825;1211;139672;-60
2023/01/22 08:01:11;;;;;;;46.30;15.30;;;;;;;0.44;100.00;102048.79;111095;1221;101576;-60
2023/01/22 08:03:37;;;;;;;48.30;15.80;;;;;;;0.46;100.00;102053.58;111157;1209;97706;-59
2023/01/22 08:06:10;;;;;;;38.80;16.10;;;;;;;0.45;100.00;102056.73;111099;1209;138804;-60
2023/01/22 08:08:36;;;;;;;48.30;18.00;;;;;;;0.43;100.00;102058.61;111110;1209;106135;-60
2023/01/22 08:11:02;;;;;;;48.60;17.00;;;;;;;0.43;100.00;102062.33;111017;1208;139140;-60
2023/01/22 08:13:27;;;;;;;40.30;15.20;;;;;;;0.45;100.00;102066.41;111201;1206;99041;-59
2023/01/22 08:15:53;;;;;;;50.10;17.60;;;;;;;0.48;100.00;102071.91;111164;1206;97430;-59
2023/01/22 08:18:20;;;;;;;46.70;17.20;;;;;;;0.50;100.00;102073.20;110988;1206;138649;-61
2023/01/22 08:20:46;;;;;;;43.20;16.30;;;;;;;0.52;100.00;102076.04;111151;1209;97795;-61
2023/01/22 08:23:11;;;;;;;55.00;17.10;;;;;;;0.53;100.00;102082.40;111027;1206;139264;-61
2023/01/22 08:25:36;;;;;;;47.50;18.20;;;;;;;0.53;100.00;102078.35;111051;1209;97683;-61
2023/01/22 08:28:03;;;;;;;42.90;15.70;;;;;;;0.53;100.00;102083.45;111043;1209;97633;-61
2023/01/22 08:30:30;;;;;;;45.30;18.20;;;;;;;0.52;100.00;102083.43;111017;1206;139039;-60
2023/01/22 08:32:55;;;;;;;43.30;14.20;;;;;;;0.54;100.00;102083.83;111149;1209;97683;-60
2023/01/22 08:35:21;;;;;;;41.40;16.90;;;;;;;0.56;100.00;102082.99;111032;1208;139097;-61
2023/01/22 08:37:46;;;;;;;55.90;18.00;;;;;;;0.55;100.00;102085.25;111100;1206;97735;-61
2023/01/22 08:40:12;;;;;;;46.00;17.20;;;;;;;0.54;100.00;102085.74;110898;1210;138891;-61
2023/01/22 08:42:39;;;;;;;42.40;15.90;;;;;;;0.56;100.00;102090.55;110986;1208;96621;-60
2023/01/22 08:45:05;;;;;;;50.10;17.10;;;;;;;0.55;100.00;102097.40;111039;1208;106235;-61
2023/01/22 08:47:31;;;;;;;62.90;19.10;;;;;;;0.55;100.00;102099.66;111159;1210;141318;-61
2023/01/22 08:49:56;;;;;;;41.00;16.70;;;;;;;0.54;100.00;102092.45;111030;1211;97655;-61
2023/01/22 08:52:21;;;;;;;50.60;17.90;;;;;;;0.55;100.00;102097.39;110812;1208;139911;-61
2023/01/22 08:54:47;;;;;;;52.90;18.40;;;;;;;0.57;100.00;102096.36;110833;1216;98585;-60
2023/01/22 08:57:12;;;;;;;58.10;17.40;;;;;;;0.56;100.00;102097.59;110957;1209;98104;-60
2023/01/22 08:59:38;;;;;;;49.40;16.90;;;;;;;0.57;100.00;102103.05;110694;1215;139672;-61
2023/01/22 09:02:03;;;;;;;51.50;18.80;;;;;;;0.57;100.00;102100.42;111005;1206;101526;-60
2023/01/22 09:04:29;;;;;;;46.40;17.50;;;;;;;0.58;100.00;102103.79;110846;1206;140695;-61
2023/01/22 09:06:54;;;;;;;53.20;19.10;;;;;;;0.60;100.00;102101.01;111156;1208;97590;-61
2023/01/22 09:09:20;;;;;;;59.00;20.10;;;;;;;0.60;100.00;102100.66;111151;1209;97790;-60
2023/01/22 09:11:45;;;;;;;48.10;16.10;;;;;;;0.61;100.00;102099.63;110834;1218;138677;-60
2023/01/22 09:14:11;;;;;;;45.90;16.60;;;;;;;0.61;100.00;102101.73;110769;1206;97638;-61
2023/01/22 09:16:37;;;;;;;46.20;18.50;;;;;;;0.60;100.00;102104.89;110946;1206;140313;-61
2023/01/22 09:19:04;;;;;;;49.10;19.20;;;;;;;0.59;100.00;102113.66;110960;1209;97961;-61
2023/01/22 09:21:30;;;;;;;49.10;19.40;;;;;;;0.59;100.00;102113.82;110852;1206;99142;-60
2023/01/22 09:23:55;;;;;;;54.70;19.90;;;;;;;0.59;100.00;102117.52;110918;1209;140131;-60
2023/01/22 09:26:20;;;;;;;56.10;20.00;;;;;;;0.60;100.00;102115.96;110984;1209;111526;-61
2023/01/22 09:28:46;;;;;;;54.20;19.90;;;;;;;0.61;100.00;102117.22;110816;1211;140612;-61
2023/01/22 09:31:12;;;;;;;50.30;18.90;;;;;;;0.63;100.00;102111.45;110752;1212;99953;-61
2023/01/22 09:33:38;;;;;;;60.20;20.00;;;;;;;0.63;100.00;102112.68;110964;1206;97738;-62
2023/01/22 09:36:08;;;;;;;51.00;19.10;;;;;;;0.66;100.00;102114.14;110805;1211;140723;-61
2023/01/22 09:38:34;;;;;;;54.10;19.40;;;;;;;0.71;100.00;102118.46;110849;1206;100205;-60
2023/01/22 09:41:03;;;;;;;51.80;18.80;;;;;;;0.69;100.00;102119.48;110753;1214;140173;-62
2023/01/22 09:43:36;;;;;;;60.80;21.00;;;;;;;0.69;100.00;102111.23;110956;1209;97975;-61
2023/01/22 09:46:11;;;;;;;48.50;18.10;;;;;;;0.69;100.00;102109.81;110894;1209;98680;-61
2023/01/22 09:48:44;;;;;;;47.40;17.30;;;;;;;0.70;100.00;102113.35;110831;1211;112943;-61
2023/01/22 09:51:14;;;;;;;45.60;17.70;;;;;;;0.71;100.00;102117.07;110776;1205;99003;-61
2023/01/22 09:53:41;;;;;;;51.40;15.30;;;;;;;0.72;100.00;102116.91;110848;1209;140102;-61
2023/01/22 09:56:19;;;;;;;48.10;16.50;;;;;;;0.73;100.00;102116.05;110885;1212;97668;-61
2023/01/22 09:58:48;;;;;;;51.10;18.50;;;;;;;0.74;100.00;102119.41;110777;1209;139605;-61
2023/01/22 10:01:15;;;;;;;50.00;18.20;;;;;;;0.73;100.00;102119.75;111090;1208;111351;-61
2023/01/22 10:03:44;;;;;;;47.10;17.20;;;;;;;0.71;100.00;102119.52;111062;1212;97684;-61
2023/01/22 10:06:17;;;;;;;45.60;17.50;;;;;;;0.69;100.00;102117.55;110983;1212;139530;-61
2023/01/22 10:09:02;;;;;;;41.70;17.10;;;;;;;0.73;100.00;102120.10;110963;1213;98903;-60
2023/01/22 10:11:28;;;;;;;53.00;18.50;;;;;;;0.74;100.00;102119.41;110902;1218;139216;-60
2023/01/22 10:13:56;;;;;;;43.60;18.00;;;;;;;0.72;100.00;102122.01;111029;1206;99089;-61
2023/01/22 10:16:22;;;;;;;45.30;17.90;;;;;;;0.72;100.00;102127.98;110976;1212;139063;-60
2023/01/22 10:18:58;;;;;;;45.00;17.10;;;;;;;0.74;100.00;102128.23;111048;1218;97623;-61
2023/01/22 10:21:27;;;;;;;54.20;20.20;;;;;;;0.75;100.00;102130.89;111067;1206;97891;-61
2023/01/22 10:23:55;;;;;;;52.00;20.10;;;;;;;0.76;100.00;102137.58;110911;1212;139715;-61
2023/01/22 10:26:30;;;;;;;49.80;18.00;;;;;;;0.79;100.00;102139.21;111078;1208;99429;-61
2023/01/22 10:29:02;;;;;;;40.60;16.30;;;;;;;0.79;100.00;102140.98;110884;1209;139921;-61
2023/01/22 10:31:32;;;;;;;45.20;17.30;;;;;;;0.80;100.00;102142.95;110675;1213;98357;-61
2023/01/22 10:34:00;;;;;;;52.30;18.60;;;;;;;0.79;100.00;102144.52;110953;1213;98140;-61
2023/01/22 10:36:28;;;;;;;53.10;21.50;;;;;;;0.81;100.00;102141.19;110864;1208;139402;-62
2023/01/22 10:39:05;;;;;;;41.10;16.40;;;;;;;0.81;100.00;102144.19;110853;1210;97874;-60
2023/01/22 10:41:31;;;;;;;44.40;16.90;;;;;;;0.79;100.00;102141.48;110810;1213;139407;-60
2023/01/22 10:44:16;;;;;;;35.00;14.90;;;;;;;0.77;100.00;102141.65;110964;1212;97565;-61
2023/01/22 10:46:42;;;;;;;44.50;15.90;;;;;;;0.75;100.00;102147.05;110859;1206;138879;-61
2023/01/22 10:49:15;;;;;;;44.80;17.70;;;;;;;0.75;100.00;102146.89;111801;1208;97379;-60
2023/01/22 10:51:45;;;;;;;41.10;14.90;;;;;;;0.79;100.00;102145.55;110991;1206;102003;-60
2023/01/22 10:54:39;;;;;;;41.90;15.90;;;;;;;0.80;100.00;102141.88;110815;1206;140716;-60
2023/01/22 10:57:06;;;;;;;43.30;16.20;;;;;;;0.75;100.00;102144.24;110865;1209;100208;-60
2023/01/22 10:59:32;;;;;;;43.10;16.10;;;;;;;0.74;100.00;102146.51;110861;1206;139108;-62
2023/01/22 11:02:01;;;;;;;43.00;16.70;;;;;;;0.76;100.00;102147.08;110941;1218;97591;-59
2023/01/22 11:04:29;;;;;;;48.60;18.20;;;;;;;0.76;100.00;102144.09;113177;1206;138991;-60
2023/01/22 11:07:01;;;;;;;53.60;20.70;;;;;;;0.78;100.00;102144.29;113305;1206;106453;-60
2023/01/22 11:09:32;;;;;;;43.40;17.30;;;;;;;0.79;100.00;102141.86;111586;1211;97716;-61
2023/01/22 11:12:06;;;;;;;;;;;;;;;0.78;100.00;102145.18;110858;1208;139313;-60